sensor_id;sensor_type;location;lat;lon;timestamp;pressure;altitude;pressure_sealevel;temperature;humidity
45129;BME280;35512;56.312;101.728;2023-08-31T00:00:01;96068.03;;;20.51;68.59
45129;BME280;35512;56.312;101.728;2023-08-31T00:02:33;96062.78;;;20.56;68.43
45129;BME280;35512;56.312;101.728;2023-08-31T00:05:02;96067.72;;;20.62;68.45
45129;BME280;35512;56.312;101.728;2023-08-31T00:07:31;96065.22;;;20.67;68.58
45129;BME280;35512;56.312;101.728;2023-08-31T00:10:00;96065.56;;;20.69;68.29
45129;BME280;35512;56.312;101.728;2023-08-31T00:12:34;96061.59;;;20.70;68.47
45129;BME280;35512;56.312;101.728;2023-08-31T00:15:03;96059.88;;;20.76;68.30
45129;BME280;35512;56.312;101.728;2023-08-31T00:17:32;96055.34;;;20.83;68.22
45129;BME280;35512;56.312;101.728;2023-08-31T00:20:01;96050.88;;;20.89;68.25
45129;BME280;35512;56.312;101.728;2023-08-31T00:22:33;96044.81;;;20.94;68.48
45129;BME280;35512;56.312;101.728;2023-08-31T00:25:02;96050.09;;;21.01;68.31
45129;BME280;35512;56.312;101.728;2023-08-31T00:27:30;96042.50;;;21.05;68.12
45129;BME280;35512;56.312;101.728;2023-08-31T00:29:59;96048.22;;;21.11;68.04
45129;BME280;35512;56.312;101.728;2023-08-31T00:32:27;96050.41;;;21.16;67.95
45129;BME280;35512;56.312;101.728;2023-08-31T00:34:56;96055.75;;;21.20;67.78
45129;BME280;35512;56.312;101.728;2023-08-31T00:37:25;96053.34;;;21.22;67.77
45129;BME280;35512;56.312;101.728;2023-08-31T00:39:54;96058.41;;;21.23;67.73
45129;BME280;35512;56.312;101.728;2023-08-31T00:42:22;96054.31;;;21.28;67.56
45129;BME280;35512;56.312;101.728;2023-08-31T00:44:53;96057.41;;;21.30;67.46
45129;BME280;35512;56.312;101.728;2023-08-31T00:47:22;96051.91;;;21.30;67.60
45129;BME280;35512;56.312;101.728;2023-08-31T00:49:51;96048.28;;;21.33;67.50
45129;BME280;35512;56.312;101.728;2023-08-31T00:52:19;96050.91;;;21.37;67.66
45129;BME280;35512;56.312;101.728;2023-08-31T00:54:49;96052.66;;;21.43;67.24
45129;BME280;35512;56.312;101.728;2023-08-31T00:57:19;96055.72;;;21.45;67.24
45129;BME280;35512;56.312;101.728;2023-08-31T00:59:50;96061.41;;;21.51;67.22
45129;BME280;35512;56.312;101.728;2023-08-31T01:02:19;96053.44;;;21.57;66.93
45129;BME280;35512;56.312;101.728;2023-08-31T01:05:19;96056.47;;;21.59;66.68
45129;BME280;35512;56.312;101.728;2023-08-31T01:10:37;96053.09;;;21.55;66.57
45129;BME280;35512;56.312;101.728;2023-08-31T01:13:13;96050.69;;;21.57;66.42
45129;BME280;35512;56.312;101.728;2023-08-31T01:15:44;96053.09;;;21.55;66.48
45129;BME280;35512;56.312;101.728;2023-08-31T01:18:15;96051.53;;;21.54;66.50
45129;BME280;35512;56.312;101.728;2023-08-31T01:23:27;96055.03;;;21.67;65.97
45129;BME280;35512;56.312;101.728;2023-08-31T01:25:58;96056.56;;;21.68;65.83
45129;BME280;35512;56.312;101.728;2023-08-31T01:28:26;96053.44;;;21.57;66.26
45129;BME280;35512;56.312;101.728;2023-08-31T01:30:54;96050.13;;;21.36;66.98
45129;BME280;35512;56.312;101.728;2023-08-31T01:33:23;96052.66;;;21.31;67.22
45129;BME280;35512;56.312;101.728;2023-08-31T01:35:51;96053.31;;;21.35;67.01
45129;BME280;35512;56.312;101.728;2023-08-31T01:38:25;96048.81;;;21.41;66.83
45129;BME280;35512;56.312;101.728;2023-08-31T01:41:03;96056.16;;;21.44;66.60
45129;BME280;35512;56.312;101.728;2023-08-31T01:43:36;96058.13;;;21.56;66.34
45129;BME280;35512;56.312;101.728;2023-08-31T01:46:06;96054.00;;;21.74;66.27
45129;BME280;35512;56.312;101.728;2023-08-31T01:48:39;96047.44;;;21.93;66.08
45129;BME280;35512;56.312;101.728;2023-08-31T01:51:09;96042.19;;;22.08;66.12
45129;BME280;35512;56.312;101.728;2023-08-31T01:53:39;96045.97;;;22.24;66.12
45129;BME280;35512;56.312;101.728;2023-08-31T01:56:07;96041.19;;;22.37;65.84
45129;BME280;35512;56.312;101.728;2023-08-31T01:58:37;96047.31;;;22.41;65.95
45129;BME280;35512;56.312;101.728;2023-08-31T02:01:06;96047.97;;;22.45;65.99
45129;BME280;35512;56.312;101.728;2023-08-31T02:03:35;96044.78;;;22.47;65.88
45129;BME280;35512;56.312;101.728;2023-08-31T02:06:04;96042.81;;;22.57;65.83
45129;BME280;35512;56.312;101.728;2023-08-31T02:08:32;96034.00;;;22.62;65.77
45129;BME280;35512;56.312;101.728;2023-08-31T02:11:01;96035.25;;;22.79;65.61
45129;BME280;35512;56.312;101.728;2023-08-31T02:13:29;96041.13;;;22.91;65.36
45129;BME280;35512;56.312;101.728;2023-08-31T02:15:58;96039.47;;;23.03;65.08
45129;BME280;35512;56.312;101.728;2023-08-31T02:18:27;96040.56;;;23.05;64.87
45129;BME280;35512;56.312;101.728;2023-08-31T02:20:55;96039.22;;;23.10;64.74
45129;BME280;35512;56.312;101.728;2023-08-31T02:23:24;96041.41;;;23.15;64.50
45129;BME280;35512;56.312;101.728;2023-08-31T02:25:52;96039.22;;;23.10;64.48
45129;BME280;35512;56.312;101.728;2023-08-31T02:28:21;96031.38;;;22.99;64.38
45129;BME280;35512;56.312;101.728;2023-08-31T02:30:57;96038.84;;;22.99;64.60
45129;BME280;35512;56.312;101.728;2023-08-31T02:33:29;96034.41;;;23.01;64.68
45129;BME280;35512;56.312;101.728;2023-08-31T02:35:57;96032.16;;;23.09;64.43
45129;BME280;35512;56.312;101.728;2023-08-31T02:38:25;96039.50;;;23.12;64.27
45129;BME280;35512;56.312;101.728;2023-08-31T02:40:54;96041.97;;;23.10;64.31
45129;BME280;35512;56.312;101.728;2023-08-31T02:43:22;96043.50;;;23.11;64.19
45129;BME280;35512;56.312;101.728;2023-08-31T02:45:59;96042.25;;;23.12;64.18
45129;BME280;35512;56.312;101.728;2023-08-31T02:48:28;96031.84;;;23.07;64.23
45129;BME280;35512;56.312;101.728;2023-08-31T02:50:58;96034.59;;;23.07;64.20
45129;BME280;35512;56.312;101.728;2023-08-31T02:53:29;96034.00;;;23.12;64.16
45129;BME280;35512;56.312;101.728;2023-08-31T02:55:58;96036.13;;;23.08;64.21
45129;BME280;35512;56.312;101.728;2023-08-31T02:58:28;96036.72;;;23.03;64.29
45129;BME280;35512;56.312;101.728;2023-08-31T03:01:07;96040.53;;;22.96;64.37
45129;BME280;35512;56.312;101.728;2023-08-31T03:03:37;96033.91;;;22.84;64.49
45129;BME280;35512;56.312;101.728;2023-08-31T03:06:06;96037.72;;;22.77;64.54
45129;BME280;35512;56.312;101.728;2023-08-31T03:08:38;96047.59;;;22.66;64.57
45129;BME280;35512;56.312;101.728;2023-08-31T03:11:07;96052.00;;;22.54;64.81
45129;BME280;35512;56.312;101.728;2023-08-31T03:13:36;96055.91;;;22.43;64.90
45129;BME280;35512;56.312;101.728;2023-08-31T03:16:05;96050.66;;;22.36;64.92
45129;BME280;35512;56.312;101.728;2023-08-31T03:18:33;96053.72;;;22.38;64.67
45129;BME280;35512;56.312;101.728;2023-08-31T03:21:02;96047.78;;;22.40;64.50
45129;BME280;35512;56.312;101.728;2023-08-31T03:23:30;96048.84;;;22.42;64.42
45129;BME280;35512;56.312;101.728;2023-08-31T03:25:59;96053.91;;;22.44;64.42
45129;BME280;35512;56.312;101.728;2023-08-31T03:28:28;96053.19;;;22.53;64.24
45129;BME280;35512;56.312;101.728;2023-08-31T03:30:56;96047.53;;;22.56;64.22
45129;BME280;35512;56.312;101.728;2023-08-31T03:33:25;96057.53;;;22.63;64.15
45129;BME280;35512;56.312;101.728;2023-08-31T03:36:02;96058.16;;;22.67;63.96
45129;BME280;35512;56.312;101.728;2023-08-31T03:38:33;96067.31;;;22.64;63.77
45129;BME280;35512;56.312;101.728;2023-08-31T03:41:06;96064.38;;;22.58;63.85
45129;BME280;35512;56.312;101.728;2023-08-31T03:43:34;96058.44;;;22.60;63.76
45129;BME280;35512;56.312;101.728;2023-08-31T03:46:03;96056.13;;;22.58;64.10
45129;BME280;35512;56.312;101.728;2023-08-31T03:48:31;96063.63;;;22.58;64.20
45129;BME280;35512;56.312;101.728;2023-08-31T03:51:00;96070.91;;;22.52;64.29
45129;BME280;35512;56.312;101.728;2023-08-31T03:53:29;96061.41;;;22.43;64.48
45129;BME280;35512;56.312;101.728;2023-08-31T03:55:59;96067.03;;;22.40;64.60
45129;BME280;35512;56.312;101.728;2023-08-31T03:58:27;96065.34;;;22.42;64.45
45129;BME280;35512;56.312;101.728;2023-08-31T04:00:56;96065.25;;;22.46;64.40
45129;BME280;35512;56.312;101.728;2023-08-31T04:03:25;96070.16;;;22.51;64.16
45129;BME280;35512;56.312;101.728;2023-08-31T04:05:54;96073.38;;;22.50;64.13
45129;BME280;35512;56.312;101.728;2023-08-31T04:08:23;96068.03;;;22.55;64.07
45129;BME280;35512;56.312;101.728;2023-08-31T04:10:52;96072.53;;;22.71;63.74
45129;BME280;35512;56.312;101.728;2023-08-31T04:13:21;96078.25;;;22.86;63.78
45129;BME280;35512;56.312;101.728;2023-08-31T04:15:49;96078.94;;;23.00;63.39
45129;BME280;35512;56.312;101.728;2023-08-31T04:18:18;96070.72;;;23.09;63.20
45129;BME280;35512;56.312;101.728;2023-08-31T04:20:51;96077.19;;;23.15;63.05
45129;BME280;35512;56.312;101.728;2023-08-31T04:23:20;96074.00;;;23.17;63.15
45129;BME280;35512;56.312;101.728;2023-08-31T04:25:48;96077.38;;;23.21;63.22
45129;BME280;35512;56.312;101.728;2023-08-31T04:28:19;96076.00;;;23.25;63.22
45129;BME280;35512;56.312;101.728;2023-08-31T04:30:47;96081.19;;;23.33;63.04
45129;BME280;35512;56.312;101.728;2023-08-31T04:33:17;96078.13;;;23.21;63.01
45129;BME280;35512;56.312;101.728;2023-08-31T04:35:46;96075.50;;;23.18;63.24
45129;BME280;35512;56.312;101.728;2023-08-31T04:38:14;96073.84;;;23.29;63.16
45129;BME280;35512;56.312;101.728;2023-08-31T04:40:43;96071.78;;;23.61;63.01
45129;BME280;35512;56.312;101.728;2023-08-31T04:43:11;96067.97;;;24.14;62.39
45129;BME280;35512;56.312;101.728;2023-08-31T04:45:40;96072.97;;;24.53;61.83
45129;BME280;35512;56.312;101.728;2023-08-31T04:48:08;96072.63;;;24.60;61.52
45129;BME280;35512;56.312;101.728;2023-08-31T04:50:37;96071.09;;;24.69;61.29
45129;BME280;35512;56.312;101.728;2023-08-31T04:53:05;96072.31;;;24.77;61.22
45129;BME280;35512;56.312;101.728;2023-08-31T04:55:34;96078.13;;;24.88;61.10
45129;BME280;35512;56.312;101.728;2023-08-31T04:58:03;96077.97;;;24.83;60.93
45129;BME280;35512;56.312;101.728;2023-08-31T05:00:32;96081.06;;;24.57;60.88
45129;BME280;35512;56.312;101.728;2023-08-31T05:03:01;96075.16;;;24.30;61.18
45129;BME280;35512;56.312;101.728;2023-08-31T05:05:30;96078.69;;;24.12;61.42
45129;BME280;35512;56.312;101.728;2023-08-31T05:08:02;96076.13;;;23.90;61.53
45129;BME280;35512;56.312;101.728;2023-08-31T05:10:31;96075.47;;;23.77;61.66
45129;BME280;35512;56.312;101.728;2023-08-31T05:12:59;96071.31;;;23.63;61.75
45129;BME280;35512;56.312;101.728;2023-08-31T05:15:28;96052.31;;;23.56;62.10
45129;BME280;35512;56.312;101.728;2023-08-31T05:17:56;96074.53;;;23.61;62.17
45129;BME280;35512;56.312;101.728;2023-08-31T05:20:25;96077.59;;;23.63;62.15
45129;BME280;35512;56.312;101.728;2023-08-31T05:22:53;96069.47;;;23.69;62.05
45129;BME280;35512;56.312;101.728;2023-08-31T05:25:22;96065.66;;;23.76;61.85
45129;BME280;35512;56.312;101.728;2023-08-31T05:27:54;96066.13;;;23.74;61.84
45129;BME280;35512;56.312;101.728;2023-08-31T05:30:22;96062.28;;;23.81;61.69
45129;BME280;35512;56.312;101.728;2023-08-31T05:32:51;96057.44;;;23.94;61.66
45129;BME280;35512;56.312;101.728;2023-08-31T05:35:19;96053.25;;;24.18;61.52
45129;BME280;35512;56.312;101.728;2023-08-31T05:37:48;96059.50;;;24.46;61.30
45129;BME280;35512;56.312;101.728;2023-08-31T05:40:16;96063.59;;;24.69;61.22
45129;BME280;35512;56.312;101.728;2023-08-31T05:42:46;96057.66;;;24.95;60.85
45129;BME280;35512;56.312;101.728;2023-08-31T05:45:14;96053.13;;;25.16;60.47
45129;BME280;35512;56.312;101.728;2023-08-31T05:47:43;96041.91;;;25.44;60.33
45129;BME280;35512;56.312;101.728;2023-08-31T05:50:11;96031.34;;;25.81;59.71
45129;BME280;35512;56.312;101.728;2023-08-31T05:52:40;96042.31;;;26.45;59.67
45129;BME280;35512;56.312;101.728;2023-08-31T05:55:12;96041.38;;;27.70;58.36
45129;BME280;35512;56.312;101.728;2023-08-31T05:57:40;96046.47;;;28.44;57.25
45129;BME280;35512;56.312;101.728;2023-08-31T06:00:09;96043.97;;;28.52;56.61
45129;BME280;35512;56.312;101.728;2023-08-31T06:02:42;96041.13;;;28.41;56.99
45129;BME280;35512;56.312;101.728;2023-08-31T06:05:12;96034.44;;;28.27;56.84
45129;BME280;35512;56.312;101.728;2023-08-31T06:07:42;96039.22;;;28.00;56.89
45129;BME280;35512;56.312;101.728;2023-08-31T06:10:11;96037.72;;;27.84;57.26
45129;BME280;35512;56.312;101.728;2023-08-31T06:12:40;96034.56;;;27.91;57.28
45129;BME280;35512;56.312;101.728;2023-08-31T06:15:08;96035.03;;;27.90;57.10
45129;BME280;35512;56.312;101.728;2023-08-31T06:17:37;96020.78;;;27.76;57.24
45129;BME280;35512;56.312;101.728;2023-08-31T06:20:06;96032.53;;;27.92;57.33
45129;BME280;35512;56.312;101.728;2023-08-31T06:22:34;96037.22;;;28.27;56.70
45129;BME280;35512;56.312;101.728;2023-08-31T06:25:03;96030.63;;;28.82;56.03
45129;BME280;35512;56.312;101.728;2023-08-31T06:27:33;96025.84;;;29.81;54.97
45129;BME280;35512;56.312;101.728;2023-08-31T06:30:02;96023.19;;;30.77;53.24
45129;BME280;35512;56.312;101.728;2023-08-31T06:32:31;96028.75;;;30.94;52.50
45129;BME280;35512;56.312;101.728;2023-08-31T06:35:00;96024.47;;;30.88;52.30
45129;BME280;35512;56.312;101.728;2023-08-31T06:37:29;96030.16;;;31.63;51.94
45129;BME280;35512;56.312;101.728;2023-08-31T06:39:58;96016.81;;;32.70;50.94
45129;BME280;35512;56.312;101.728;2023-08-31T06:42:26;96027.41;;;33.57;48.65
45129;BME280;35512;56.312;101.728;2023-08-31T06:44:55;96018.97;;;34.01;48.61
45129;BME280;35512;56.312;101.728;2023-08-31T06:47:25;96020.31;;;35.24;47.37
45129;BME280;35512;56.312;101.728;2023-08-31T06:49:53;96018.13;;;36.74;45.33
45129;BME280;35512;56.312;101.728;2023-08-31T06:52:22;96018.38;;;37.99;43.85
45129;BME280;35512;56.312;101.728;2023-08-31T06:54:58;96023.63;;;38.70;42.49
45129;BME280;35512;56.312;101.728;2023-08-31T06:57:27;96015.34;;;38.88;41.05
45129;BME280;35512;56.312;101.728;2023-08-31T06:59:55;96012.56;;;37.61;42.13
45129;BME280;35512;56.312;101.728;2023-08-31T07:02:26;96010.03;;;35.94;43.32
45129;BME280;35512;56.312;101.728;2023-08-31T07:04:55;96013.56;;;34.22;45.11
45129;BME280;35512;56.312;101.728;2023-08-31T07:07:24;96007.91;;;32.72;46.17
45129;BME280;35512;56.312;101.728;2023-08-31T07:09:52;96010.09;;;31.65;47.54
45129;BME280;35512;56.312;101.728;2023-08-31T07:12:22;96006.00;;;30.79;47.99
45129;BME280;35512;56.312;101.728;2023-08-31T07:14:51;96006.19;;;30.18;48.64
45129;BME280;35512;56.312;101.728;2023-08-31T07:17:19;96006.16;;;29.96;48.70
45129;BME280;35512;56.312;101.728;2023-08-31T07:19:48;96003.66;;;30.15;48.70
45129;BME280;35512;56.312;101.728;2023-08-31T07:22:17;95999.63;;;30.22;48.47
45129;BME280;35512;56.312;101.728;2023-08-31T07:24:45;95999.09;;;30.06;48.69
45129;BME280;35512;56.312;101.728;2023-08-31T07:27:14;95995.72;;;29.79;48.65
45129;BME280;35512;56.312;101.728;2023-08-31T07:29:42;95998.13;;;29.43;49.03
45129;BME280;35512;56.312;101.728;2023-08-31T07:32:11;96004.00;;;29.08;49.27
45129;BME280;35512;56.312;101.728;2023-08-31T07:34:39;96003.53;;;28.72;49.11
45129;BME280;35512;56.312;101.728;2023-08-31T07:37:08;96000.13;;;28.30;49.66
45129;BME280;35512;56.312;101.728;2023-08-31T07:39:36;95995.88;;;28.08;49.85
45129;BME280;35512;56.312;101.728;2023-08-31T07:42:05;95985.66;;;27.94;50.41
45129;BME280;35512;56.312;101.728;2023-08-31T07:44:33;95984.31;;;27.89;50.60
45129;BME280;35512;56.312;101.728;2023-08-31T07:47:02;95992.81;;;27.80;50.50
45129;BME280;35512;56.312;101.728;2023-08-31T07:49:30;95985.47;;;27.77;50.62
45129;BME280;35512;56.312;101.728;2023-08-31T07:51:59;95979.97;;;27.82;50.97
45129;BME280;35512;56.312;101.728;2023-08-31T07:54:27;95985.31;;;27.86;50.76
45129;BME280;35512;56.312;101.728;2023-08-31T07:56:55;95989.81;;;27.83;50.71
45129;BME280;35512;56.312;101.728;2023-08-31T07:59:24;95987.25;;;27.80;51.02
45129;BME280;35512;56.312;101.728;2023-08-31T08:01:53;95989.00;;;27.77;51.22
45129;BME280;35512;56.312;101.728;2023-08-31T08:04:22;95986.00;;;27.81;51.17
45129;BME280;35512;56.312;101.728;2023-08-31T08:06:51;95980.84;;;27.94;51.10
45129;BME280;35512;56.312;101.728;2023-08-31T08:09:20;95977.44;;;28.05;50.79
45129;BME280;35512;56.312;101.728;2023-08-31T08:11:51;95981.31;;;28.13;50.85
45129;BME280;35512;56.312;101.728;2023-08-31T08:14:21;95971.50;;;28.18;50.42
45129;BME280;35512;56.312;101.728;2023-08-31T08:16:50;95966.56;;;28.02;50.79
45129;BME280;35512;56.312;101.728;2023-08-31T08:19:24;95972.13;;;27.55;51.03
45129;BME280;35512;56.312;101.728;2023-08-31T08:21:53;95966.00;;;27.30;51.40
45129;BME280;35512;56.312;101.728;2023-08-31T08:24:21;95962.63;;;27.20;51.61
45129;BME280;35512;56.312;101.728;2023-08-31T08:26:50;95960.47;;;27.09;51.60
45129;BME280;35512;56.312;101.728;2023-08-31T08:29:19;95958.88;;;27.03;51.69
45129;BME280;35512;56.312;101.728;2023-08-31T08:31:47;95960.59;;;27.00;51.45
45129;BME280;35512;56.312;101.728;2023-08-31T08:34:16;95951.16;;;26.92;51.39
45129;BME280;35512;56.312;101.728;2023-08-31T08:36:44;95947.22;;;26.78;51.68
45129;BME280;35512;56.312;101.728;2023-08-31T08:39:12;95948.56;;;26.53;51.96
45129;BME280;35512;56.312;101.728;2023-08-31T08:41:41;95954.53;;;26.30;52.43
45129;BME280;35512;56.312;101.728;2023-08-31T08:44:10;95956.81;;;26.17;52.16
45129;BME280;35512;56.312;101.728;2023-08-31T08:46:40;95946.81;;;26.05;52.83
45129;BME280;35512;56.312;101.728;2023-08-31T08:49:09;95949.63;;;25.95;52.58
45129;BME280;35512;56.312;101.728;2023-08-31T08:51:38;95941.91;;;25.85;52.99
45129;BME280;35512;56.312;101.728;2023-08-31T08:54:07;95949.72;;;25.71;53.17
45129;BME280;35512;56.312;101.728;2023-08-31T08:56:36;95945.41;;;25.55;53.42
45129;BME280;35512;56.312;101.728;2023-08-31T08:59:05;95942.31;;;25.38;53.46
45129;BME280;35512;56.312;101.728;2023-08-31T09:01:37;95943.78;;;25.24;53.62
45129;BME280;35512;56.312;101.728;2023-08-31T09:04:09;95944.78;;;25.12;53.74
45129;BME280;35512;56.312;101.728;2023-08-31T09:06:37;95948.84;;;25.02;54.18
45129;BME280;35512;56.312;101.728;2023-08-31T09:09:10;95949.03;;;24.98;53.95
45129;BME280;35512;56.312;101.728;2023-08-31T09:11:38;95939.69;;;24.95;54.00
45129;BME280;35512;56.312;101.728;2023-08-31T09:14:13;95937.66;;;24.96;54.14
45129;BME280;35512;56.312;101.728;2023-08-31T09:16:46;95935.53;;;24.91;54.23
45129;BME280;35512;56.312;101.728;2023-08-31T09:19:22;95941.44;;;24.84;54.36
45129;BME280;35512;56.312;101.728;2023-08-31T09:21:51;95935.19;;;24.74;54.78
45129;BME280;35512;56.312;101.728;2023-08-31T09:24:20;95934.19;;;24.62;55.19
45129;BME280;35512;56.312;101.728;2023-08-31T09:26:54;95929.13;;;24.51;55.67
45129;BME280;35512;56.312;101.728;2023-08-31T09:29:23;95927.19;;;24.42;55.91
45129;BME280;35512;56.312;101.728;2023-08-31T09:31:52;95935.97;;;24.32;56.37
45129;BME280;35512;56.312;101.728;2023-08-31T09:34:22;95933.09;;;24.26;56.38
45129;BME280;35512;56.312;101.728;2023-08-31T09:37:04;95929.88;;;24.18;56.55
45129;BME280;35512;56.312;101.728;2023-08-31T09:39:36;95929.44;;;24.10;56.79
45129;BME280;35512;56.312;101.728;2023-08-31T09:42:05;95929.97;;;24.00;57.13
45129;BME280;35512;56.312;101.728;2023-08-31T09:44:34;95930.72;;;23.91;57.51
45129;BME280;35512;56.312;101.728;2023-08-31T09:47:08;95923.69;;;23.80;57.73
45129;BME280;35512;56.312;101.728;2023-08-31T09:49:37;95928.28;;;23.74;57.99
45129;BME280;35512;56.312;101.728;2023-08-31T09:52:07;95924.47;;;23.72;58.00
45129;BME280;35512;56.312;101.728;2023-08-31T09:54:37;95916.94;;;23.72;58.14
45129;BME280;35512;56.312;101.728;2023-08-31T09:57:05;95914.19;;;23.72;58.16
45129;BME280;35512;56.312;101.728;2023-08-31T09:59:34;95918.94;;;23.72;57.97
45129;BME280;35512;56.312;101.728;2023-08-31T10:02:07;95919.56;;;23.76;58.03
45129;BME280;35512;56.312;101.728;2023-08-31T10:04:38;95916.03;;;23.75;58.12
45129;BME280;35512;56.312;101.728;2023-08-31T10:07:08;95915.13;;;23.69;58.32
45129;BME280;35512;56.312;101.728;2023-08-31T10:09:38;95913.28;;;23.66;58.56
45129;BME280;35512;56.312;101.728;2023-08-31T10:12:06;95920.34;;;23.58;58.57
45129;BME280;35512;56.312;101.728;2023-08-31T10:14:36;95923.72;;;23.53;58.84
45129;BME280;35512;56.312;101.728;2023-08-31T10:17:04;95920.66;;;23.51;58.91
45129;BME280;35512;56.312;101.728;2023-08-31T10:19:33;95917.00;;;23.44;58.91
45129;BME280;35512;56.312;101.728;2023-08-31T10:22:01;95925.72;;;23.43;59.00
45129;BME280;35512;56.312;101.728;2023-08-31T10:27:19;95921.00;;;23.34;59.24
45129;BME280;35512;56.312;101.728;2023-08-31T10:29:48;95925.09;;;23.29;59.28
45129;BME280;35512;56.312;101.728;2023-08-31T10:32:17;95921.72;;;23.25;59.42
45129;BME280;35512;56.312;101.728;2023-08-31T10:35:05;95923.13;;;23.21;59.52
45129;BME280;35512;56.312;101.728;2023-08-31T10:37:33;95921.09;;;23.12;59.66
45129;BME280;35512;56.312;101.728;2023-08-31T10:40:11;95920.94;;;23.06;59.84
45129;BME280;35512;56.312;101.728;2023-08-31T10:42:44;95919.25;;;23.00;60.02
45129;BME280;35512;56.312;101.728;2023-08-31T10:45:13;95916.78;;;22.92;60.10
45129;BME280;35512;56.312;101.728;2023-08-31T10:47:41;95911.13;;;22.87;60.38
45129;BME280;35512;56.312;101.728;2023-08-31T10:50:17;95911.41;;;22.79;60.50
45129;BME280;35512;56.312;101.728;2023-08-31T10:52:46;95916.75;;;22.74;60.61
45129;BME280;35512;56.312;101.728;2023-08-31T10:55:14;95916.44;;;22.72;60.73
45129;BME280;35512;56.312;101.728;2023-08-31T10:57:43;95918.25;;;22.66;60.67
45129;BME280;35512;56.312;101.728;2023-08-31T11:00:12;95916.41;;;22.62;60.83
45129;BME280;35512;56.312;101.728;2023-08-31T11:02:42;95925.88;;;22.61;60.87
45129;BME280;35512;56.312;101.728;2023-08-31T11:05:13;95924.81;;;22.59;60.99
45129;BME280;35512;56.312;101.728;2023-08-31T11:07:45;95925.72;;;22.56;61.05
45129;BME280;35512;56.312;101.728;2023-08-31T11:12:46;95931.69;;;22.54;61.19
45129;BME280;35512;56.312;101.728;2023-08-31T11:15:16;95934.44;;;22.54;61.06
45129;BME280;35512;56.312;101.728;2023-08-31T11:17:45;95930.94;;;22.54;61.12
45129;BME280;35512;56.312;101.728;2023-08-31T11:20:18;95948.66;;;22.53;61.22
45129;BME280;35512;56.312;101.728;2023-08-31T11:22:49;95945.13;;;22.52;61.29
45129;BME280;35512;56.312;101.728;2023-08-31T11:25:22;95938.22;;;22.48;61.36
45129;BME280;35512;56.312;101.728;2023-08-31T11:28:02;95950.16;;;22.44;61.43
45129;BME280;35512;56.312;101.728;2023-08-31T11:30:36;95953.78;;;22.41;61.58
45129;BME280;35512;56.312;101.728;2023-08-31T11:33:06;95955.47;;;22.39;61.69
45129;BME280;35512;56.312;101.728;2023-08-31T11:35:35;95958.22;;;22.39;61.76
45129;BME280;35512;56.312;101.728;2023-08-31T11:38:04;95956.69;;;22.38;61.87
45129;BME280;35512;56.312;101.728;2023-08-31T11:40:35;95961.09;;;22.35;61.99
45129;BME280;35512;56.312;101.728;2023-08-31T11:43:04;95965.50;;;22.33;62.13
45129;BME280;35512;56.312;101.728;2023-08-31T11:45:34;95969.91;;;22.30;62.22
45129;BME280;35512;56.312;101.728;2023-08-31T11:48:05;95960.56;;;22.27;62.27
45129;BME280;35512;56.312;101.728;2023-08-31T11:50:34;95970.19;;;22.23;62.32
45129;BME280;35512;56.312;101.728;2023-08-31T11:53:03;95961.44;;;22.15;62.43
45129;BME280;35512;56.312;101.728;2023-08-31T11:55:32;95967.22;;;22.08;62.49
45129;BME280;35512;56.312;101.728;2023-08-31T11:58:01;95968.25;;;22.01;62.51
45129;BME280;35512;56.312;101.728;2023-08-31T12:00:30;95970.03;;;21.95;62.64
45129;BME280;35512;56.312;101.728;2023-08-31T12:03:01;95971.50;;;21.87;63.07
45129;BME280;35512;56.312;101.728;2023-08-31T12:05:45;95971.47;;;21.77;63.43
45129;BME280;35512;56.312;101.728;2023-08-31T12:08:14;95965.09;;;21.68;63.56
45129;BME280;35512;56.312;101.728;2023-08-31T12:10:43;95974.41;;;21.61;63.70
45129;BME280;35512;56.312;101.728;2023-08-31T12:13:12;95973.88;;;21.53;63.73
45129;BME280;35512;56.312;101.728;2023-08-31T12:15:43;95979.25;;;21.44;63.82
45129;BME280;35512;56.312;101.728;2023-08-31T12:18:12;95985.44;;;21.35;63.97
45129;BME280;35512;56.312;101.728;2023-08-31T12:20:47;95984.16;;;21.27;63.96
45129;BME280;35512;56.312;101.728;2023-08-31T12:23:16;95987.13;;;21.20;64.09
45129;BME280;35512;56.312;101.728;2023-08-31T12:25:46;95984.63;;;21.13;64.16
45129;BME280;35512;56.312;101.728;2023-08-31T12:28:16;95986.38;;;21.06;64.25
45129;BME280;35512;56.312;101.728;2023-08-31T12:30:53;95977.06;;;21.04;64.33
45129;BME280;35512;56.312;101.728;2023-08-31T12:33:24;95986.19;;;21.01;64.47
45129;BME280;35512;56.312;101.728;2023-08-31T12:35:53;95987.81;;;20.98;64.33
45129;BME280;35512;56.312;101.728;2023-08-31T12:38:21;95982.91;;;20.93;64.53
45129;BME280;35512;56.312;101.728;2023-08-31T12:40:50;95981.47;;;20.88;64.72
45129;BME280;35512;56.312;101.728;2023-08-31T12:43:18;95984.00;;;20.83;64.65
45129;BME280;35512;56.312;101.728;2023-08-31T12:45:47;95984.13;;;20.79;64.88
45129;BME280;35512;56.312;101.728;2023-08-31T12:48:16;95987.44;;;20.74;64.97
45129;BME280;35512;56.312;101.728;2023-08-31T12:50:45;95988.41;;;20.67;64.94
45129;BME280;35512;56.312;101.728;2023-08-31T12:53:13;95991.34;;;20.60;65.16
45129;BME280;35512;56.312;101.728;2023-08-31T12:55:42;95990.16;;;20.48;65.33
45129;BME280;35512;56.312;101.728;2023-08-31T12:58:11;95984.78;;;20.32;65.59
45129;BME280;35512;56.312;101.728;2023-08-31T13:00:40;95992.53;;;20.20;65.63
45129;BME280;35512;56.312;101.728;2023-08-31T13:03:11;95981.09;;;20.09;65.84